Time;durP1;ratioP1;P1;durP2;ratioP2;P2;SDS_P1;SDS_P2;PMS_P1;PMS_P2;Temp;Humidity;BMP_temperature;BMP_pressure;BME280_temperature;BME280_humidity;BME280_pressure;Samples;Min_cycle;Max_cycle;Signal;HPM_P1;HPM_P2
2021/11/05 00:00:14;;;;;;;8.70;4.65;;;11.90;96.70;;;;;;4935814;28;20417;-80
2021/11/05 00:02:42;;;;;;;9.20;4.50;;;11.80;96.70;;;;;;4944514;28;20620;-80
2021/11/05 00:05:10;;;;;;;7.80;3.78;;;11.80;96.70;;;;;;4947958;28;20145;-80
2021/11/05 00:07:38;;;;;;;8.35;4.30;;;11.80;96.70;;;;;;4933961;28;20067;-80
2021/11/05 00:10:08;;;;;;;7.25;4.05;;;11.80;96.70;;;;;;4942316;28;20071;-80
2021/11/05 00:12:36;;;;;;;7.05;4.05;;;11.90;96.70;;;;;;4930233;28;20054;-80
2021/11/05 00:15:06;;;;;;;11.10;4.45;;;11.80;96.70;;;;;;4937692;28;20395;-79
2021/11/05 00:17:34;;;;;;;8.05;4.80;;;11.80;96.70;;;;;;4939788;28;20409;-79
2021/11/05 00:20:03;;;;;;;9.45;5.43;;;11.80;96.70;;;;;;4940955;28;20085;-80
2021/11/05 00:22:31;;;;;;;11.25;4.80;;;11.90;96.70;;;;;;4934582;28;20086;-79
2021/11/05 00:24:59;;;;;;;8.68;4.45;;;11.90;96.70;;;;;;4936446;28;20455;-79
2021/11/05 00:27:27;;;;;;;7.28;4.70;;;11.90;96.70;;;;;;4941018;28;20043;-80
2021/11/05 00:29:54;;;;;;;8.77;4.82;;;11.90;96.70;;;;;;4942195;28;20098;-79
2021/11/05 00:32:24;;;;;;;7.65;4.55;;;11.90;96.70;;;;;;4936869;28;20035;-80
2021/11/05 00:34:52;;;;;;;10.20;4.57;;;11.70;96.70;;;;;;4945799;28;20042;-79
2021/11/05 00:37:19;;;;;;;8.05;3.65;;;11.50;96.70;;;;;;4928444;28;20040;-79
2021/11/05 00:39:48;;;;;;;9.65;3.90;;;11.40;96.70;;;;;;4943218;28;20039;-79
2021/11/05 00:42:17;;;;;;;9.75;4.22;;;11.40;96.70;;;;;;4937163;28;20043;-79
2021/11/05 00:44:44;;;;;;;7.50;3.55;;;11.40;96.70;;;;;;4939505;28;20048;-79
2021/11/05 00:47:15;;;;;;;9.52;3.67;;;11.40;96.70;;;;;;4923098;28;20043;-79
2021/11/05 00:49:45;;;;;;;9.40;4.38;;;11.50;96.70;;;;;;4945655;28;20040;-79
2021/11/05 00:52:13;;;;;;;5.40;3.20;;;11.40;96.70;;;;;;4919805;28;20569;-79
2021/11/05 00:54:41;;;;;;;7.50;4.03;;;11.30;96.70;;;;;;4918126;28;20500;-79
2021/11/05 00:57:09;;;;;;;7.97;3.70;;;11.30;96.70;;;;;;4937045;28;20043;-79
2021/11/05 00:59:39;;;;;;;5.07;3.22;;;11.30;96.70;;;;;;4935535;28;20556;-79
2021/11/05 01:02:08;;;;;;;8.30;3.50;;;11.30;96.70;;;;;;4936006;28;20043;-79
2021/11/05 01:04:36;;;;;;;8.93;3.70;;;11.20;96.70;;;;;;4939538;28;20837;-79
2021/11/05 01:07:06;;;;;;;6.72;3.47;;;11.20;96.70;;;;;;4921614;28;20051;-80
2021/11/05 01:09:34;;;;;;;11.68;3.65;;;11.30;96.70;;;;;;4936120;28;20128;-79
2021/11/05 01:12:01;;;;;;;6.68;3.22;;;11.40;96.70;;;;;;4921703;29;20421;-79
2021/11/05 01:14:30;;;;;;;10.98;4.25;;;11.40;96.70;;;;;;4929970;28;20533;-79
2021/11/05 01:16:58;;;;;;;11.02;4.15;;;11.30;96.70;;;;;;4934957;28;20059;-79
2021/11/05 01:19:26;;;;;;;12.25;4.57;;;11.40;96.70;;;;;;4935882;28;20044;-78
2021/11/05 01:21:54;;;;;;;6.38;3.60;;;11.40;96.70;;;;;;4934498;28;20035;-79
2021/11/05 01:24:24;;;;;;;8.63;3.90;;;11.40;96.70;;;;;;4929929;28;20054;-79
2021/11/05 01:26:52;;;;;;;7.00;3.58;;;11.40;96.70;;;;;;4939339;28;20107;-79
2021/11/05 01:29:20;;;;;;;6.13;3.78;;;11.50;96.70;;;;;;4938787;28;20043;-79
2021/11/05 01:31:48;;;;;;;5.13;3.78;;;11.50;96.70;;;;;;4937547;28;20050;-79
2021/11/05 01:34:16;;;;;;;7.88;3.92;;;11.30;96.70;;;;;;4931262;28;20602;-78
2021/11/05 01:36:48;;;;;;;7.10;3.42;;;11.30;96.70;;;;;;4934060;28;20077;-79
2021/11/05 01:39:17;;;;;;;7.40;2.95;;;11.30;96.70;;;;;;4933362;28;20071;-76
2021/11/05 01:41:47;;;;;;;6.32;3.30;;;11.30;96.70;;;;;;4939630;28;20063;-79
2021/11/05 01:44:16;;;;;;;7.03;3.30;;;11.30;96.70;;;;;;4936627;28;20448;-79
2021/11/05 01:46:44;;;;;;;7.50;3.47;;;11.20;96.70;;;;;;4930637;28;20545;-79
2021/11/05 01:49:13;;;;;;;8.38;3.33;;;11.20;96.70;;;;;;4942546;28;20470;-79
2021/11/05 01:51:41;;;;;;;6.40;3.08;;;11.20;96.70;;;;;;4934428;28;20082;-79
2021/11/05 01:54:10;;;;;;;4.05;2.83;;;11.30;96.70;;;;;;4933285;28;20494;-79
2021/11/05 01:56:41;;;;;;;4.88;3.13;;;11.30;96.70;;;;;;4941720;28;20048;-79
2021/11/05 01:59:22;;;;;;;5.25;2.80;;;11.10;96.70;;;;;;4938157;28;20080;-79
2021/11/05 02:01:50;;;;;;;7.05;3.20;;;11.10;96.70;;;;;;4939605;28;20071;-78
2021/11/05 02:04:18;;;;;;;7.68;2.75;;;11.00;96.70;;;;;;4937558;28;20505;-78
2021/11/05 02:06:49;;;;;;;5.20;2.65;;;11.10;96.70;;;;;;4930032;28;20047;-78
2021/11/05 02:09:19;;;;;;;6.90;3.25;;;11.20;96.70;;;;;;4937316;28;20134;-79
2021/11/05 02:11:49;;;;;;;6.80;2.92;;;11.20;96.70;;;;;;4932644;28;20054;-79
2021/11/05 02:14:25;;;;;;;6.72;3.20;;;11.30;96.70;;;;;;4931690;28;20044;-78
2021/11/05 02:16:58;;;;;;;7.93;3.17;;;11.40;96.70;;;;;;4937172;28;20048;-78
2021/11/05 02:19:30;;;;;;;6.38;3.13;;;11.00;96.70;;;;;;4936577;28;20134;-79
2021/11/05 02:22:01;;;;;;;5.70;2.90;;;10.90;96.70;;;;;;4925140;28;20453;-79
2021/11/05 02:24:29;;;;;;;7.05;3.38;;;11.00;96.70;;;;;;4939461;28;20075;-79
2021/11/05 02:26:59;;;;;;;7.00;3.20;;;11.10;96.70;;;;;;4927487;28;20545;-79
2021/11/05 02:29:29;;;;;;;6.53;3.58;;;11.20;96.70;;;;;;4925142;28;20408;-78
2021/11/05 02:31:57;;;;;;;6.25;3.40;;;11.20;96.70;;;;;;4934812;28;20538;-78
2021/11/05 02:34:25;;;;;;;8.23;3.88;;;11.30;96.70;;;;;;4934739;28;20074;-78
2021/11/05 02:36:54;;;;;;;5.80;3.20;;;11.20;96.70;;;;;;4932355;28;20048;-78
2021/11/05 02:39:24;;;;;;;5.45;2.90;;;11.20;96.70;;;;;;4942425;28;20508;-78
2021/11/05 02:41:53;;;;;;;5.38;2.72;;;11.30;96.70;;;;;;4936584;28;20956;-78
2021/11/05 02:44:22;;;;;;;7.85;3.35;;;11.30;96.70;;;;;;4935277;28;20039;-78
2021/11/05 02:46:51;;;;;;;5.55;2.90;;;11.30;96.70;;;;;;4938991;28;20043;-78
2021/11/05 02:49:24;;;;;;;6.72;2.92;;;11.10;96.70;;;;;;4935357;28;20039;-78
2021/11/05 02:51:53;;;;;;;6.90;3.00;;;11.00;96.70;;;;;;4939935;28;20094;-78
2021/11/05 02:54:23;;;;;;;7.43;3.47;;;11.00;96.70;;;;;;4940769;28;20054;-78
2021/11/05 02:56:51;;;;;;;6.47;2.90;;;11.00;96.70;;;;;;4934885;28;20107;-78
2021/11/05 02:59:19;;;;;;;7.50;3.28;;;10.80;96.70;;;;;;4920336;28;20039;-78
2021/11/05 03:01:47;;;;;;;5.45;2.60;;;10.70;96.70;;;;;;4941116;28;20039;-78
2021/11/05 03:04:16;;;;;;;6.30;2.63;;;10.70;96.70;;;;;;4942329;28;20040;-78
2021/11/05 03:06:44;;;;;;;6.80;3.20;;;10.90;96.70;;;;;;4934782;28;20048;-78
2021/11/05 03:09:14;;;;;;;5.25;2.85;;;10.90;96.70;;;;;;4923999;28;20054;-78
2021/11/05 03:11:46;;;;;;;6.90;3.25;;;10.90;96.70;;;;;;4940546;28;20050;-78
2021/11/05 03:14:15;;;;;;;6.95;2.88;;;11.00;96.70;;;;;;4943879;28;20822;-78
2021/11/05 03:16:43;;;;;;;6.38;2.90;;;10.90;96.70;;;;;;4937026;28;20055;-78
2021/11/05 03:19:11;;;;;;;8.30;3.33;;;11.00;96.70;;;;;;4934351;28;20047;-76
2021/11/05 03:21:39;;;;;;;6.05;3.10;;;11.00;96.70;;;;;;4933836;28;20027;-76
2021/11/05 03:24:07;;;;;;;6.85;2.78;;;11.00;96.70;;;;;;4940862;28;20046;-78
2021/11/05 03:26:36;;;;;;;6.65;2.63;;;11.00;96.70;;;;;;4934556;28;20043;-76
2021/11/05 03:29:09;;;;;;;8.05;2.95;;;10.90;96.70;;;;;;4942943;28;20055;-76
2021/11/05 03:31:37;;;;;;;4.63;2.50;;;10.90;96.70;;;;;;4927291;28;20036;-76
2021/11/05 03:34:05;;;;;;;6.07;2.60;;;10.90;96.70;;;;;;4939880;28;20137;-76
2021/11/05 03:36:33;;;;;;;3.78;2.42;;;10.80;96.70;;;;;;4936754;28;20044;-76
2021/11/05 03:39:03;;;;;;;4.18;2.03;;;10.80;96.70;;;;;;4914492;28;20612;-76
2021/11/05 03:41:31;;;;;;;5.93;2.42;;;10.80;96.70;;;;;;4938931;28;20040;-76
2021/11/05 03:43:59;;;;;;;4.10;2.42;;;10.80;96.70;;;;;;4938480;28;20095;-76
2021/11/05 03:46:31;;;;;;;5.55;2.03;;;10.80;96.70;;;;;;4934333;28;20134;-76
2021/11/05 03:48:59;;;;;;;5.00;2.45;;;10.70;96.70;;;;;;4896260;29;20048;-77
2021/11/05 03:51:28;;;;;;;6.05;2.63;;;10.70;96.70;;;;;;4904821;29;20132;-76
2021/11/05 03:53:56;;;;;;;7.10;2.15;;;10.70;96.70;;;;;;4888675;29;20040;-76
2021/11/05 03:56:25;;;;;;;4.45;1.75;;;10.70;96.70;;;;;;4894075;29;20096;-76
2021/11/05 03:58:53;;;;;;;7.10;2.10;;;10.70;96.70;;;;;;4895583;29;20044;-76
2021/11/05 04:01:22;;;;;;;4.30;1.80;;;10.80;96.70;;;;;;4895850;29;20377;-76
2021/11/05 04:03:52;;;;;;;6.07;2.08;;;10.90;96.70;;;;;;4897907;29;20514;-76
2021/11/05 04:06:22;;;;;;;6.43;2.00;;;10.90;96.70;;;;;;4905561;29;20076;-77
2021/11/05 04:08:50;;;;;;;5.43;2.22;;;10.90;96.70;;;;;;4897141;29;20047;-76
2021/11/05 04:11:19;;;;;;;6.57;1.55;;;10.90;96.70;;;;;;4901593;29;20044;-76
2021/11/05 04:13:47;;;;;;;6.72;2.15;;;10.90;96.70;;;;;;4899502;29;20123;-76
2021/11/05 04:16:16;;;;;;;4.30;1.90;;;10.90;96.70;;;;;;4900259;29;20049;-76
2021/11/05 04:18:44;;;;;;;5.65;2.22;;;10.80;96.70;;;;;;4885974;29;20142;-77
2021/11/05 04:21:14;;;;;;;5.65;1.95;;;10.90;96.70;;;;;;4895042;29;20129;-76
2021/11/05 04:23:43;;;;;;;7.82;2.03;;;10.90;96.70;;;;;;4897329;29;20048;-77
2021/11/05 04:26:11;;;;;;;6.15;2.15;;;10.90;96.70;;;;;;4890707;29;20075;-76
2021/11/05 04:28:40;;;;;;;5.68;2.28;;;10.90;96.70;;;;;;4899050;29;20080;-76
2021/11/05 04:31:08;;;;;;;3.38;1.80;;;10.80;96.70;;;;;;4906877;29;20045;-76
2021/11/05 04:33:37;;;;;;;6.88;2.50;;;11.00;96.70;;;;;;4898881;29;20036;-76
2021/11/05 04:36:07;;;;;;;6.63;2.35;;;10.80;96.70;;;;;;4899225;29;20044;-76
2021/11/05 04:38:37;;;;;;;3.28;1.75;;;10.70;96.70;;;;;;4896111;29;20154;-76
2021/11/05 04:41:09;;;;;;;3.83;2.00;;;10.70;96.70;;;;;;4898074;29;20392;-76
2021/11/05 04:43:39;;;;;;;6.57;2.25;;;10.60;96.70;;;;;;4902921;29;20522;-76
2021/11/05 04:46:07;;;;;;;4.28;2.00;;;10.40;96.70;;;;;;4893967;29;20052;-76
2021/11/05 04:48:36;;;;;;;5.35;1.98;;;10.40;96.70;;;;;;4934346;28;20341;-76
2021/11/05 04:51:04;;;;;;;6.93;2.15;;;10.40;96.70;;;;;;4934959;28;20042;-76
2021/11/05 04:53:32;;;;;;;4.03;2.17;;;10.40;96.70;;;;;;4942503;28;20066;-75
2021/11/05 04:56:02;;;;;;;5.00;2.08;;;10.40;96.70;;;;;;4936877;28;20070;-75
2021/11/05 04:58:30;;;;;;;5.30;1.75;;;10.50;96.70;;;;;;4935848;28;20197;-76
2021/11/05 05:00:59;;;;;;;3.92;1.88;;;10.60;96.70;;;;;;4932350;28;20082;-76
2021/11/05 05:03:27;;;;;;;3.97;2.00;;;10.50;96.70;;;;;;4937955;28;20047;-76
2021/11/05 05:05:55;;;;;;;3.70;1.73;;;10.60;96.70;;;;;;4944876;28;20044;-76
2021/11/05 05:08:24;;;;;;;5.53;1.90;;;10.60;96.70;;;;;;4940676;28;20047;-76
2021/11/05 05:10:52;;;;;;;6.07;1.98;;;10.50;96.70;;;;;;4935617;28;20039;-76
2021/11/05 05:13:21;;;;;;;4.22;1.85;;;10.50;96.70;;;;;;4933814;28;20043;-76
2021/11/05 05:15:50;;;;;;;4.15;2.20;;;10.50;96.70;;;;;;4921430;29;20082;-76
2021/11/05 05:18:18;;;;;;;4.78;1.85;;;10.60;96.70;;;;;;4934874;28;20130;-76
2021/11/05 05:20:46;;;;;;;5.95;2.15;;;10.60;96.70;;;;;;4922381;28;20437;-76
2021/11/05 05:23:14;;;;;;;5.30;2.15;;;10.60;96.70;;;;;;4941092;28;20093;-76
2021/11/05 05:25:43;;;;;;;3.63;2.05;;;10.60;96.70;;;;;;4931564;28;20049;-76
2021/11/05 05:28:11;;;;;;;3.13;1.73;;;10.60;96.70;;;;;;4936606;28;20067;-76
2021/11/05 05:30:43;;;;;;;5.35;1.95;;;10.60;96.70;;;;;;4933067;28;20044;-77
2021/11/05 05:33:11;;;;;;;7.63;2.30;;;10.60;96.70;;;;;;4921406;28;20288;-79
2021/11/05 05:35:39;;;;;;;6.03;1.83;;;10.60;96.70;;;;;;4933410;28;20041;-79
2021/11/05 05:38:07;;;;;;;3.80;1.70;;;10.50;96.70;;;;;;4921310;28;20534;-79
2021/11/05 05:40:36;;;;;;;6.82;2.17;;;10.60;96.70;;;;;;4936770;28;20086;-79
2021/11/05 05:43:04;;;;;;;4.18;1.67;;;10.60;96.70;;;;;;4928630;29;20577;-79
2021/11/05 05:45:33;;;;;;;6.18;1.80;;;10.60;96.70;;;;;;4938490;28;20058;-79
2021/11/05 05:48:03;;;;;;;5.38;1.58;;;10.50;96.70;;;;;;4932294;28;20197;-80
2021/11/05 05:50:31;;;;;;;6.95;1.80;;;10.50;96.70;;;;;;4929278;28;20544;-79
2021/11/05 05:52:59;;;;;;;4.10;1.80;;;10.50;96.70;;;;;;4940670;28;20070;-79
2021/11/05 05:55:27;;;;;;;5.15;2.17;;;10.60;96.70;;;;;;4916728;28;20062;-79
2021/11/05 05:57:59;;;;;;;6.82;1.95;;;10.50;96.70;;;;;;4938082;28;20051;-79
2021/11/05 06:00:29;;;;;;;6.47;2.30;;;10.50;96.70;;;;;;4937945;28;20655;-80
2021/11/05 06:02:58;;;;;;;5.15;2.13;;;10.50;96.70;;;;;;4939986;28;20058;-78
2021/11/05 06:05:27;;;;;;;6.20;2.20;;;10.50;96.70;;;;;;4935739;28;20040;-79
2021/11/05 06:07:55;;;;;;;5.85;2.30;;;10.50;96.70;;;;;;4935237;28;20488;-80
2021/11/05 06:10:24;;;;;;;6.18;1.85;;;10.60;96.70;;;;;;4933320;28;20051;-79
2021/11/05 06:12:52;;;;;;;6.60;1.65;;;10.60;96.70;;;;;;4931638;28;20244;-79
2021/11/05 06:15:20;;;;;;;5.68;2.50;;;10.70;96.70;;;;;;4936288;28;20076;-79
2021/11/05 06:17:48;;;;;;;7.72;2.33;;;10.70;96.70;;;;;;4917938;29;20053;-79
2021/11/05 06:20:16;;;;;;;6.45;2.25;;;10.70;96.70;;;;;;4926689;28;20439;-79
2021/11/05 06:22:47;;;;;;;6.43;2.00;;;10.60;96.70;;;;;;4938476;28;20322;-79
2021/11/05 06:25:16;;;;;;;6.00;2.13;;;10.60;96.70;;;;;;4940033;28;20066;-79
2021/11/05 06:27:44;;;;;;;4.68;2.20;;;10.70;96.70;;;;;;4931374;28;20054;-79
2021/11/05 06:30:12;;;;;;;8.20;2.15;;;10.70;96.70;;;;;;4938256;28;20041;-79
2021/11/05 06:32:41;;;;;;;6.25;2.85;;;10.70;96.70;;;;;;4935625;28;20039;-79
2021/11/05 06:35:10;;;;;;;7.75;3.17;;;10.60;96.70;;;;;;4939042;28;20062;-79
2021/11/05 06:37:38;;;;;;;6.43;2.70;;;10.60;96.70;;;;;;4943817;28;20425;-77
2021/11/05 06:40:11;;;;;;;6.13;2.35;;;10.60;96.70;;;;;;4936399;28;20051;-77
2021/11/05 06:42:40;;;;;;;8.18;2.60;;;10.70;96.70;;;;;;4935356;28;20051;-77
2021/11/05 06:45:09;;;;;;;5.38;2.40;;;10.80;96.70;;;;;;4935447;28;20039;-77
2021/11/05 06:47:38;;;;;;;7.95;3.15;;;10.90;96.70;;;;;;4935718;28;20587;-77
2021/11/05 06:50:08;;;;;;;7.43;2.90;;;10.90;96.70;;;;;;4932582;28;20413;-77
2021/11/05 06:52:36;;;;;;;9.93;3.30;;;10.90;96.70;;;;;;4935762;28;20429;-77
2021/11/05 06:55:06;;;;;;;8.88;3.60;;;11.00;96.70;;;;;;4935888;28;20035;-77
2021/11/05 06:57:36;;;;;;;11.68;3.25;;;11.10;96.70;;;;;;4933753;28;20050;-77
2021/11/05 07:00:06;;;;;;;9.40;3.58;;;11.20;96.70;;;;;;4942249;28;20397;-77
2021/11/05 07:02:40;;;;;;;8.10;3.50;;;11.20;96.70;;;;;;4945697;28;20047;-77
2021/11/05 07:05:10;;;;;;;10.75;3.60;;;11.10;96.70;;;;;;4942478;28;20051;-77
2021/11/05 07:07:38;;;;;;;12.82;4.20;;;11.10;96.70;;;;;;4932056;28;20047;-77
2021/11/05 07:10:08;;;;;;;9.90;3.30;;;11.10;96.70;;;;;;4920856;28;20049;-77
2021/11/05 07:12:38;;;;;;;13.43;3.45;;;11.20;96.70;;;;;;4931368;28;20475;-77
2021/11/05 07:15:11;;;;;;;11.82;3.53;;;11.20;96.70;;;;;;4937072;28;20326;-77
2021/11/05 07:17:39;;;;;;;8.40;3.58;;;11.30;96.70;;;;;;4941904;28;20094;-77
2021/11/05 07:20:08;;;;;;;9.90;3.83;;;11.30;96.70;;;;;;4938744;28;20059;-77
2021/11/05 07:22:37;;;;;;;8.65;4.57;;;11.50;96.70;;;;;;4936963;28;20039;-77
2021/11/05 07:25:06;;;;;;;14.38;6.78;;;11.50;96.70;;;;;;4937669;28;20046;-77
2021/11/05 07:27:34;;;;;;;16.80;8.13;;;11.60;96.70;;;;;;4931631;28;20619;-76
2021/11/05 07:30:06;;;;;;;16.83;6.95;;;11.60;96.70;;;;;;4938604;28;20047;-77
2021/11/05 07:32:34;;;;;;;13.48;6.00;;;11.60;96.70;;;;;;4924984;28;20058;-77
2021/11/05 07:35:03;;;;;;;13.45;4.55;;;11.60;96.70;;;;;;4933774;28;20071;-77
2021/11/05 07:37:32;;;;;;;12.35;4.10;;;11.60;96.70;;;;;;4939340;28;20078;-77
2021/11/05 07:40:00;;;;;;;10.00;3.75;;;11.70;96.70;;;;;;4929088;28;20119;-77
2021/11/05 07:42:29;;;;;;;11.27;3.97;;;11.70;96.70;;;;;;4921140;28;20044;-79
2021/11/05 07:44:57;;;;;;;7.68;3.50;;;11.70;96.70;;;;;;4926446;28;20071;-84
2021/11/05 07:47:27;;;;;;;7.93;3.70;;;11.80;96.70;;;;;;4932985;28;20528;-84
2021/11/05 07:49:56;;;;;;;11.35;4.63;;;11.80;96.70;;;;;;4944796;28;20043;-84
2021/11/05 07:52:24;;;;;;;10.45;4.28;;;12.00;96.70;;;;;;4941844;28;20099;-84
2021/11/05 07:54:52;;;;;;;8.07;3.90;;;12.10;96.70;;;;;;4936249;28;20133;-85
2021/11/05 07:57:23;;;;;;;11.70;4.75;;;12.10;96.70;;;;;;4938536;28;20046;-86
2021/11/05 07:59:52;;;;;;;9.32;3.65;;;12.20;96.70;;;;;;4937793;28;20043;-83
2021/11/05 08:02:20;;;;;;;8.57;3.75;;;12.20;96.70;;;;;;4939743;28;20274;-81
2021/11/05 08:04:50;;;;;;;9.35;4.13;;;12.30;96.70;;;;;;4941467;28;20039;-84
2021/11/05 08:07:21;;;;;;;9.63;3.70;;;12.40;96.70;;;;;;4939511;28;20061;-80
2021/11/05 08:09:49;;;;;;;11.88;4.30;;;12.30;96.70;;;;;;4945296;28;20501;-82
2021/11/05 08:12:18;;;;;;;8.27;3.58;;;12.30;96.70;;;;;;4945613;28;20034;-84
2021/11/05 08:14:46;;;;;;;12.48;3.85;;;12.30;96.70;;;;;;4925145;28;20047;-84
2021/11/05 08:17:14;;;;;;;9.13;3.50;;;12.20;96.70;;;;;;4926073;28;20050;-82
2021/11/05 08:19:42;;;;;;;9.50;3.90;;;12.20;96.70;;;;;;4929247;28;20051;-84
2021/11/05 08:22:12;;;;;;;7.82;3.25;;;12.30;96.70;;;;;;4942049;28;20046;-86
2021/11/05 08:24:40;;;;;;;9.10;3.67;;;12.40;96.70;;;;;;4942547;28;20054;-84
2021/11/05 08:27:08;;;;;;;8.02;3.38;;;12.40;96.70;;;;;;4941421;28;20074;-85
2021/11/05 08:29:36;;;;;;;7.57;3.33;;;12.50;96.70;;;;;;4940499;28;20043;-86
2021/11/05 08:32:05;;;;;;;8.23;3.10;;;12.50;96.70;;;;;;4940841;28;20069;-86
2021/11/05 08:34:33;;;;;;;6.70;3.13;;;12.60;96.70;;;;;;4936123;28;20055;-85
2021/11/05 08:37:01;;;;;;;9.75;3.50;;;12.60;96.70;;;;;;4941877;28;20085;-82
2021/11/05 08:39:33;;;;;;;7.20;3.00;;;12.70;96.70;;;;;;4924088;28;20059;-90
2021/11/05 08:42:02;;;;;;;12.88;3.28;;;12.70;96.70;;;;;;4921812;28;20054;-90
2021/11/05 08:44:32;;;;;;;6.53;2.97;;;12.70;96.70;;;;;;4939382;28;20251;-83
2021/11/05 08:47:00;;;;;;;10.77;3.83;;;12.80;96.70;;;;;;4929611;28;20051;-84
2021/11/05 08:49:29;;;;;;;9.27;3.58;;;12.80;96.70;;;;;;4939751;28;20137;-84
2021/11/05 08:51:57;;;;;;;7.72;3.17;;;12.80;96.70;;;;;;4924245;28;20046;-85
2021/11/05 08:54:26;;;;;;;8.48;3.53;;;12.90;96.70;;;;;;4940367;28;20165;-83
2021/11/05 08:56:56;;;;;;;5.72;2.72;;;12.90;96.70;;;;;;4922601;28;20047;-88
2021/11/05 08:59:25;;;;;;;6.60;3.35;;;13.00;96.70;;;;;;4933606;28;20051;-87
2021/11/05 09:01:54;;;;;;;5.75;2.97;;;13.00;96.70;;;;;;4936038;28;20069;-91
2021/11/05 09:04:22;;;;;;;8.27;2.80;;;12.90;96.70;;;;;;4925750;28;20137;-91
2021/11/05 09:06:51;;;;;;;8.50;3.05;;;12.90;96.70;;;;;;4938881;28;20047;-89
2021/11/05 09:09:21;;;;;;;5.95;2.45;;;13.00;96.70;;;;;;4947379;28;20046;-84
2021/11/05 09:11:49;;;;;;;9.43;2.80;;;13.10;96.70;;;;;;4935727;28;20047;-84
2021/11/05 09:14:20;;;;;;;9.05;3.50;;;13.10;96.70;;;;;;4938183;28;20069;-84
2021/11/05 09:17:08;;;;;;;6.97;2.47;;;13.10;96.70;;;;;;4942499;28;20485;-85
2021/11/05 09:19:36;;;;;;;10.98;2.70;;;13.20;96.70;;;;;;4933242;28;20035;-83
2021/11/05 09:22:05;;;;;;;6.47;2.65;;;13.30;96.70;;;;;;4924448;28;20048;-82
2021/11/05 09:24:34;;;;;;;6.90;2.85;;;13.30;96.70;;;;;;4937362;28;20039;-83
2021/11/05 09:27:03;;;;;;;6.22;2.50;;;13.40;96.70;;;;;;4938221;28;20689;-83
2021/11/05 09:29:32;;;;;;;6.07;2.83;;;13.40;96.70;;;;;;4934712;28;20043;-81
2021/11/05 09:32:00;;;;;;;4.40;2.60;;;13.50;96.70;;;;;;4932434;28;20043;-81
2021/11/05 09:34:31;;;;;;;6.47;2.58;;;13.60;96.70;;;;;;4940011;28;20099;-84
2021/11/05 09:37:01;;;;;;;8.77;2.95;;;13.60;96.70;;;;;;4938286;28;20039;-84
2021/11/05 09:39:30;;;;;;;6.47;2.30;;;13.80;96.70;;;;;;4937662;28;20078;-84
2021/11/05 09:41:59;;;;;;;6.65;2.65;;;13.90;96.70;;;;;;4921657;29;20210;-85
2021/11/05 09:44:29;;;;;;;7.10;2.85;;;14.00;96.70;;;;;;4925991;28;20044;-85
2021/11/05 09:47:03;;;;;;;5.40;2.45;;;14.10;96.70;;;;;;4934031;28;20421;-87
2021/11/05 09:49:33;;;;;;;5.15;2.28;;;14.20;96.70;;;;;;4927459;28;20051;-88
2021/11/05 09:52:04;;;;;;;8.25;2.40;;;14.30;96.70;;;;;;4934961;28;20497;-89
2021/11/05 09:54:38;;;;;;;7.32;2.50;;;14.30;96.70;;;;;;4920958;29;20142;-87
2021/11/05 09:57:07;;;;;;;7.50;3.00;;;14.40;96.70;;;;;;4933575;28;20051;-86
2021/11/05 09:59:36;;;;;;;5.65;2.17;;;14.50;96.70;;;;;;4933736;28;20413;-85
2021/11/05 10:02:06;;;;;;;8.35;2.92;;;14.60;96.70;;;;;;4918966;28;20054;-86
2021/11/05 10:04:35;;;;;;;4.28;1.90;;;14.70;96.70;;;;;;4919269;28;20559;-85
2021/11/05 10:07:05;;;;;;;6.32;1.98;;;14.80;96.70;;;;;;4936616;28;20602;-86
2021/11/05 10:09:38;;;;;;;5.88;2.60;;;14.80;96.70;;;;;;4932642;28;20098;-85
2021/11/05 10:12:08;;;;;;;7.65;2.95;;;14.90;96.70;;;;;;4941976;28;20051;-79
2021/11/05 10:14:38;;;;;;;5.55;2.42;;;14.90;96.70;;;;;;4920741;28;20047;-79
2021/11/05 10:17:10;;;;;;;5.20;2.13;;;15.00;96.70;;;;;;4933027;28;20047;-80
2021/11/05 10:19:50;;;;;;;8.23;2.67;;;15.00;96.70;;;;;;4921580;28;20082;-79
2021/11/05 10:22:43;;;;;;;7.28;3.00;;;15.00;96.70;;;;;;4931157;28;20493;-78
2021/11/05 10:25:24;;;;;;;8.23;3.15;;;15.10;96.70;;;;;;4940458;28;20123;-82
2021/11/05 10:28:08;;;;;;;3.70;2.15;;;15.10;96.70;;;;;;4936032;28;20098;-81
2021/11/05 10:30:39;;;;;;;8.48;2.45;;;15.20;96.70;;;;;;4932046;28;20470;-80
2021/11/05 10:33:10;;;;;;;8.15;3.03;;;15.20;96.70;;;;;;4936870;28;20043;-82
2021/11/05 10:35:45;;;;;;;7.22;2.83;;;15.20;96.70;;;;;;4931707;28;20040;-82
2021/11/05 10:38:31;;;;;;;9.05;2.53;;;15.20;96.70;;;;;;4938548;28;20095;-81
2021/11/05 10:41:02;;;;;;;9.25;2.55;;;15.30;96.70;;;;;;4944937;28;20050;-80
2021/11/05 10:43:35;;;;;;;6.75;2.45;;;15.30;96.70;;;;;;4941962;28;20406;-80
2021/11/05 10:46:05;;;;;;;5.75;2.67;;;15.30;96.70;;;;;;4937249;28;20044;-80
2021/11/05 10:48:38;;;;;;;6.07;2.58;;;15.20;96.70;;;;;;4936992;28;20059;-79
2021/11/05 10:51:08;;;;;;;6.80;2.40;;;15.10;96.70;;;;;;4935594;28;20040;-80
2021/11/05 10:53:38;;;;;;;9.57;2.42;;;15.10;96.70;;;;;;4930088;28;20453;-79
2021/11/05 10:56:08;;;;;;;8.15;3.00;;;15.10;96.70;;;;;;4933450;28;20055;-80
2021/11/05 10:58:39;;;;;;;6.68;2.60;;;15.10;96.70;;;;;;4937933;28;20062;-80
2021/11/05 11:01:15;;;;;;;11.50;3.38;;;15.20;96.70;;;;;;4951859;28;20102;-80
2021/11/05 11:03:47;;;;;;;7.28;2.92;;;15.20;96.70;;;;;;4919084;29;20496;-79
2021/11/05 11:06:18;;;;;;;10.52;3.78;;;15.20;96.70;;;;;;4935350;28;20052;-79
2021/11/05 11:08:48;;;;;;;5.55;2.60;;;15.20;96.70;;;;;;4936397;28;20078;-80
2021/11/05 11:11:22;;;;;;;7.78;3.50;;;15.30;96.70;;;;;;4932680;28;20051;-80
2021/11/05 11:13:52;;;;;;;12.35;3.40;;;15.30;96.70;;;;;;4945037;28;20075;-79
2021/11/05 11:16:25;;;;;;;7.75;2.70;;;15.30;96.70;;;;;;4942977;28;20505;-80
2021/11/05 11:19:00;;;;;;;8.27;3.20;;;15.30;96.70;;;;;;4922607;28;20647;-80
2021/11/05 11:21:31;;;;;;;7.00;2.97;;;15.30;96.70;;;;;;4945972;28;20404;-80
2021/11/05 11:24:01;;;;;;;8.02;3.15;;;15.30;96.70;;;;;;4926575;28;20542;-80
2021/11/05 11:26:32;;;;;;;9.43;3.25;;;15.30;96.70;;;;;;4930979;28;21183;-80
2021/11/05 11:29:02;;;;;;;6.88;2.70;;;15.30;96.70;;;;;;4941614;28;20690;-80
2021/11/05 11:31:30;;;;;;;6.57;3.03;;;15.30;96.70;;;;;;4933900;28;20059;-80
2021/11/05 11:34:05;;;;;;;6.10;2.17;;;15.40;96.70;;;;;;4941465;28;20508;-80
2021/11/05 11:36:35;;;;;;;7.53;2.70;;;15.30;96.70;;;;;;4929926;28;20083;-80
2021/11/05 11:39:06;;;;;;;6.97;2.60;;;15.30;96.70;;;;;;4942017;28;20040;-80
2021/11/05 11:41:35;;;;;;;4.95;2.40;;;15.30;96.70;;;;;;4939610;28;20051;-80
2021/11/05 11:44:04;;;;;;;7.03;2.97;;;15.30;96.70;;;;;;4944828;28;20043;-80
2021/11/05 11:46:54;;;;;;;7.78;2.72;;;15.30;96.70;;;;;;4919176;28;20410;-80
2021/11/05 11:49:45;;;;;;;6.40;2.85;;;15.40;96.70;;;;;;4935749;28;20047;-80
2021/11/05 11:52:31;;;;;;;8.55;3.88;;;15.40;96.70;;;;;;4928080;28;20337;-80
2021/11/05 11:55:15;;;;;;;5.82;2.92;;;15.40;96.70;;;;;;4931535;28;20399;-80
2021/11/05 11:57:44;;;;;;;7.75;2.95;;;15.50;96.70;;;;;;4924087;29;20106;-80
2021/11/05 12:00:18;;;;;;;6.13;2.78;;;15.50;96.70;;;;;;4937706;28;20066;-80
2021/11/05 12:02:47;;;;;;;6.78;2.28;;;15.50;96.70;;;;;;4936316;28;20065;-80
2021/11/05 12:05:39;;;;;;;6.57;2.60;;;15.50;96.70;;;;;;4933219;28;20130;-80
2021/11/05 12:08:26;;;;;;;7.18;2.35;;;15.60;96.70;;;;;;4923273;29;20054;-80
2021/11/05 12:11:20;;;;;;;4.72;2.65;;;15.60;96.70;;;;;;4934881;28;20040;-80
2021/11/05 12:13:51;;;;;;;8.32;2.90;;;15.60;96.70;;;;;;4920888;28;20626;-80
2021/11/05 12:16:25;;;;;;;10.05;4.45;;;15.70;96.70;;;;;;4936703;28;20143;-80
2021/11/05 12:19:17;;;;;;;6.88;3.42;;;15.70;96.70;;;;;;4946448;28;20464;-80
2021/11/05 12:22:07;;;;;;;5.20;1.80;;;15.80;96.70;;;;;;4932839;28;20035;-81
2021/11/05 12:24:35;;;;;;;3.33;1.30;;;15.80;96.70;;;;;;4931727;28;20075;-80
2021/11/05 12:27:14;;;;;;;4.00;1.77;;;15.80;96.70;;;;;;4941252;28;20139;-80
2021/11/05 12:29:57;;;;;;;4.65;1.60;;;15.80;96.70;;;;;;4936313;28;20513;-80
2021/11/05 12:32:40;;;;;;;3.45;1.13;;;15.90;96.70;;;;;;4938945;28;20498;-81
2021/11/05 12:35:25;;;;;;;3.20;1.10;;;15.80;96.70;;;;;;4923412;29;20482;-80
2021/11/05 12:37:58;;;;;;;3.42;0.60;;;15.80;96.70;;;;;;4936309;28;20102;-80
2021/11/05 12:40:34;;;;;;;3.50;0.73;;;15.80;96.70;;;;;;4940719;28;20051;-80
2021/11/05 12:43:06;;;;;;;4.32;1.33;;;15.90;96.70;;;;;;4942097;28;20495;-81
2021/11/05 12:45:52;;;;;;;2.10;1.02;;;15.80;96.70;;;;;;4925204;28;20051;-81
2021/11/05 12:48:49;;;;;;;1.77;0.80;;;15.80;96.70;;;;;;4933369;28;20556;-80
2021/11/05 12:51:20;;;;;;;2.85;1.00;;;15.80;96.70;;;;;;4943916;28;20290;-81
2021/11/05 12:54:09;;;;;;;2.67;1.15;;;15.70;96.70;;;;;;4936622;28;20588;-81
2021/11/05 12:56:39;;;;;;;6.32;1.20;;;15.70;96.70;;;;;;4932134;28;20047;-81
2021/11/05 12:59:09;;;;;;;4.13;1.55;;;15.70;96.70;;;;;;4930793;28;20126;-81
2021/11/05 13:01:38;;;;;;;2.65;1.30;;;15.70;96.70;;;;;;4944410;28;20046;-81